sensor_id;sensor_type;location;lat;lon;timestamp;P1;durP1;ratioP1;P2;durP2;ratioP2
13685;SDS011;6915;48.296;8.874;2022-08-20T00:00:07;11.83;;;10.73;;
13685;SDS011;6915;48.296;8.874;2022-08-20T00:02:39;12.60;;;11.43;;
13685;SDS011;6915;48.296;8.874;2022-08-20T00:05:07;12.60;;;11.33;;
13685;SDS011;6915;48.296;8.874;2022-08-20T00:07:34;13.10;;;11.40;;
13685;SDS011;6915;48.296;8.874;2022-08-20T00:10:02;13.03;;;11.50;;
13685;SDS011;6915;48.296;8.874;2022-08-20T00:12:31;11.70;;;10.60;;
13685;SDS011;6915;48.296;8.874;2022-08-20T00:15:00;11.27;;;10.37;;
13685;SDS011;6915;48.296;8.874;2022-08-20T00:17:27;12.60;;;11.40;;
13685;SDS011;6915;48.296;8.874;2022-08-20T00:19:57;11.93;;;10.73;;
13685;SDS011;6915;48.296;8.874;2022-08-20T00:22:24;12.20;;;11.17;;
13685;SDS011;6915;48.296;8.874;2022-08-20T00:24:52;11.47;;;10.53;;
13685;SDS011;6915;48.296;8.874;2022-08-20T00:27:19;12.23;;;11.03;;
13685;SDS011;6915;48.296;8.874;2022-08-20T00:29:46;11.77;;;10.77;;
13685;SDS011;6915;48.296;8.874;2022-08-20T00:32:14;11.63;;;10.53;;
13685;SDS011;6915;48.296;8.874;2022-08-20T00:34:41;11.20;;;10.17;;
13685;SDS011;6915;48.296;8.874;2022-08-20T00:37:08;11.27;;;10.17;;
13685;SDS011;6915;48.296;8.874;2022-08-20T00:39:35;10.67;;;9.67;;
13685;SDS011;6915;48.296;8.874;2022-08-20T00:42:02;11.67;;;10.57;;
13685;SDS011;6915;48.296;8.874;2022-08-20T00:44:30;11.57;;;9.87;;
13685;SDS011;6915;48.296;8.874;2022-08-20T00:46:57;9.97;;;9.00;;
13685;SDS011;6915;48.296;8.874;2022-08-20T00:49:26;10.17;;;9.27;;
13685;SDS011;6915;48.296;8.874;2022-08-20T00:51:57;10.43;;;9.47;;
13685;SDS011;6915;48.296;8.874;2022-08-20T00:54:28;10.60;;;9.70;;
13685;SDS011;6915;48.296;8.874;2022-08-20T00:56:59;10.07;;;9.17;;
13685;SDS011;6915;48.296;8.874;2022-08-20T00:59:30;10.23;;;9.33;;
13685;SDS011;6915;48.296;8.874;2022-08-20T01:02:00;10.43;;;9.53;;
13685;SDS011;6915;48.296;8.874;2022-08-20T01:04:30;10.37;;;9.27;;
13685;SDS011;6915;48.296;8.874;2022-08-20T01:07:00;9.90;;;8.93;;
13685;SDS011;6915;48.296;8.874;2022-08-20T01:09:29;10.23;;;9.33;;
13685;SDS011;6915;48.296;8.874;2022-08-20T01:11:56;10.07;;;9.07;;
13685;SDS011;6915;48.296;8.874;2022-08-20T01:14:23;9.80;;;9.00;;
13685;SDS011;6915;48.296;8.874;2022-08-20T01:16:57;10.70;;;9.80;;
13685;SDS011;6915;48.296;8.874;2022-08-20T01:19:28;10.30;;;9.30;;
13685;SDS011;6915;48.296;8.874;2022-08-20T01:22:00;10.03;;;9.13;;
13685;SDS011;6915;48.296;8.874;2022-08-20T01:24:50;10.17;;;9.23;;
13685;SDS011;6915;48.296;8.874;2022-08-20T01:27:23;10.10;;;9.10;;
13685;SDS011;6915;48.296;8.874;2022-08-20T01:29:50;10.30;;;9.17;;
13685;SDS011;6915;48.296;8.874;2022-08-20T01:32:17;10.07;;;9.03;;
13685;SDS011;6915;48.296;8.874;2022-08-20T01:34:44;10.20;;;9.33;;
13685;SDS011;6915;48.296;8.874;2022-08-20T01:37:11;9.43;;;8.63;;
13685;SDS011;6915;48.296;8.874;2022-08-20T01:39:38;10.83;;;8.57;;
13685;SDS011;6915;48.296;8.874;2022-08-20T01:42:06;9.43;;;8.57;;
13685;SDS011;6915;48.296;8.874;2022-08-20T01:44:39;8.53;;;7.83;;
13685;SDS011;6915;48.296;8.874;2022-08-20T01:47:10;9.40;;;8.50;;
13685;SDS011;6915;48.296;8.874;2022-08-20T01:49:41;8.70;;;7.90;;
13685;SDS011;6915;48.296;8.874;2022-08-20T01:52:11;8.87;;;8.17;;
13685;SDS011;6915;48.296;8.874;2022-08-20T01:54:43;9.33;;;8.43;;
13685;SDS011;6915;48.296;8.874;2022-08-20T01:57:11;8.60;;;7.90;;
13685;SDS011;6915;48.296;8.874;2022-08-20T01:59:41;8.90;;;8.10;;
13685;SDS011;6915;48.296;8.874;2022-08-20T02:02:10;8.30;;;7.60;;
13685;SDS011;6915;48.296;8.874;2022-08-20T02:04:38;8.17;;;7.37;;
13685;SDS011;6915;48.296;8.874;2022-08-20T02:07:06;8.20;;;7.50;;
13685;SDS011;6915;48.296;8.874;2022-08-20T02:09:37;8.07;;;7.37;;
13685;SDS011;6915;48.296;8.874;2022-08-20T02:12:05;8.90;;;8.00;;
13685;SDS011;6915;48.296;8.874;2022-08-20T02:14:34;7.73;;;7.13;;
13685;SDS011;6915;48.296;8.874;2022-08-20T02:17:05;9.07;;;7.33;;
13685;SDS011;6915;48.296;8.874;2022-08-20T02:19:35;7.77;;;7.17;;
13685;SDS011;6915;48.296;8.874;2022-08-20T02:22:08;8.13;;;7.47;;
13685;SDS011;6915;48.296;8.874;2022-08-20T02:24:41;8.10;;;7.50;;
13685;SDS011;6915;48.296;8.874;2022-08-20T02:27:08;8.53;;;7.73;;
13685;SDS011;6915;48.296;8.874;2022-08-20T02:29:35;8.53;;;7.73;;
13685;SDS011;6915;48.296;8.874;2022-08-20T02:32:03;7.70;;;7.00;;
13685;SDS011;6915;48.296;8.874;2022-08-20T02:34:31;7.80;;;7.07;;
13685;SDS011;6915;48.296;8.874;2022-08-20T02:37:00;7.90;;;7.30;;
13685;SDS011;6915;48.296;8.874;2022-08-20T02:39:27;7.70;;;7.00;;
13685;SDS011;6915;48.296;8.874;2022-08-20T02:41:54;7.80;;;7.10;;
13685;SDS011;6915;48.296;8.874;2022-08-20T02:44:21;7.63;;;6.87;;
13685;SDS011;6915;48.296;8.874;2022-08-20T02:46:48;8.73;;;7.60;;
13685;SDS011;6915;48.296;8.874;2022-08-20T02:49:15;8.23;;;7.63;;
13685;SDS011;6915;48.296;8.874;2022-08-20T02:51:45;7.50;;;6.90;;
13685;SDS011;6915;48.296;8.874;2022-08-20T02:54:12;8.10;;;7.30;;
13685;SDS011;6915;48.296;8.874;2022-08-20T02:56:39;7.30;;;6.80;;
13685;SDS011;6915;48.296;8.874;2022-08-20T02:59:07;7.67;;;7.07;;
13685;SDS011;6915;48.296;8.874;2022-08-20T03:01:34;7.50;;;6.80;;
13685;SDS011;6915;48.296;8.874;2022-08-20T03:04:01;9.13;;;6.80;;
13685;SDS011;6915;48.296;8.874;2022-08-20T03:06:29;7.20;;;6.33;;
13685;SDS011;6915;48.296;8.874;2022-08-20T03:08:57;6.70;;;6.20;;
13685;SDS011;6915;48.296;8.874;2022-08-20T03:11:24;7.27;;;6.67;;
13685;SDS011;6915;48.296;8.874;2022-08-20T03:13:51;6.70;;;6.20;;
13685;SDS011;6915;48.296;8.874;2022-08-20T03:16:18;6.90;;;6.17;;
13685;SDS011;6915;48.296;8.874;2022-08-20T03:18:45;6.90;;;6.33;;
13685;SDS011;6915;48.296;8.874;2022-08-20T03:21:13;6.83;;;6.33;;
13685;SDS011;6915;48.296;8.874;2022-08-20T03:23:40;6.80;;;6.20;;
13685;SDS011;6915;48.296;8.874;2022-08-20T03:26:10;6.60;;;6.10;;
13685;SDS011;6915;48.296;8.874;2022-08-20T03:28:38;6.87;;;6.27;;
13685;SDS011;6915;48.296;8.874;2022-08-20T03:31:06;6.60;;;6.00;;
13685;SDS011;6915;48.296;8.874;2022-08-20T03:33:33;6.73;;;6.13;;
13685;SDS011;6915;48.296;8.874;2022-08-20T03:36:00;6.63;;;6.13;;
13685;SDS011;6915;48.296;8.874;2022-08-20T03:38:28;7.50;;;6.80;;
13685;SDS011;6915;48.296;8.874;2022-08-20T03:40:55;8.80;;;6.70;;
13685;SDS011;6915;48.296;8.874;2022-08-20T03:43:23;6.97;;;6.37;;
13685;SDS011;6915;48.296;8.874;2022-08-20T03:45:50;6.77;;;6.27;;
13685;SDS011;6915;48.296;8.874;2022-08-20T03:48:18;7.10;;;6.50;;
13685;SDS011;6915;48.296;8.874;2022-08-20T03:50:45;6.97;;;6.27;;
13685;SDS011;6915;48.296;8.874;2022-08-20T03:53:15;6.30;;;5.80;;
13685;SDS011;6915;48.296;8.874;2022-08-20T03:55:42;7.20;;;6.60;;
13685;SDS011;6915;48.296;8.874;2022-08-20T03:58:11;6.43;;;5.93;;
13685;SDS011;6915;48.296;8.874;2022-08-20T04:00:41;7.20;;;6.50;;
13685;SDS011;6915;48.296;8.874;2022-08-20T04:03:10;6.77;;;6.10;;
13685;SDS011;6915;48.296;8.874;2022-08-20T04:05:37;6.90;;;6.30;;
13685;SDS011;6915;48.296;8.874;2022-08-20T04:08:06;6.73;;;6.13;;
13685;SDS011;6915;48.296;8.874;2022-08-20T04:10:34;6.50;;;5.83;;
13685;SDS011;6915;48.296;8.874;2022-08-20T04:13:02;6.67;;;6.17;;
13685;SDS011;6915;48.296;8.874;2022-08-20T04:15:31;6.47;;;5.97;;
13685;SDS011;6915;48.296;8.874;2022-08-20T04:18:01;6.87;;;6.33;;
13685;SDS011;6915;48.296;8.874;2022-08-20T04:20:32;6.27;;;5.67;;
13685;SDS011;6915;48.296;8.874;2022-08-20T04:23:00;7.20;;;6.43;;
13685;SDS011;6915;48.296;8.874;2022-08-20T04:25:27;6.53;;;6.00;;
13685;SDS011;6915;48.296;8.874;2022-08-20T04:27:55;6.70;;;6.10;;
13685;SDS011;6915;48.296;8.874;2022-08-20T04:30:23;6.33;;;5.73;;
13685;SDS011;6915;48.296;8.874;2022-08-20T04:32:50;5.87;;;5.40;;
13685;SDS011;6915;48.296;8.874;2022-08-20T04:35:20;6.53;;;6.03;;
13685;SDS011;6915;48.296;8.874;2022-08-20T04:37:55;7.00;;;6.30;;
13685;SDS011;6915;48.296;8.874;2022-08-20T04:40:23;6.07;;;5.53;;
13685;SDS011;6915;48.296;8.874;2022-08-20T04:43:08;7.50;;;6.03;;
13685;SDS011;6915;48.296;8.874;2022-08-20T04:45:35;6.40;;;5.80;;
13685;SDS011;6915;48.296;8.874;2022-08-20T04:48:02;7.40;;;5.90;;
13685;SDS011;6915;48.296;8.874;2022-08-20T04:50:33;6.07;;;5.57;;
13685;SDS011;6915;48.296;8.874;2022-08-20T04:53:01;6.47;;;5.67;;
13685;SDS011;6915;48.296;8.874;2022-08-20T04:55:28;5.63;;;5.17;;
13685;SDS011;6915;48.296;8.874;2022-08-20T04:58:00;5.93;;;5.43;;
13685;SDS011;6915;48.296;8.874;2022-08-20T05:00:28;5.93;;;5.33;;
13685;SDS011;6915;48.296;8.874;2022-08-20T05:02:56;6.97;;;5.93;;
13685;SDS011;6915;48.296;8.874;2022-08-20T05:05:23;6.67;;;5.93;;
13685;SDS011;6915;48.296;8.874;2022-08-20T05:07:52;6.60;;;6.10;;
13685;SDS011;6915;48.296;8.874;2022-08-20T05:10:19;6.67;;;6.03;;
13685;SDS011;6915;48.296;8.874;2022-08-20T05:12:48;6.57;;;5.97;;
13685;SDS011;6915;48.296;8.874;2022-08-20T05:15:15;6.93;;;5.70;;
13685;SDS011;6915;48.296;8.874;2022-08-20T05:17:42;6.03;;;5.47;;
13685;SDS011;6915;48.296;8.874;2022-08-20T05:20:11;6.07;;;5.37;;
13685;SDS011;6915;48.296;8.874;2022-08-20T05:22:40;5.30;;;4.90;;
13685;SDS011;6915;48.296;8.874;2022-08-20T05:25:09;5.90;;;5.40;;
13685;SDS011;6915;48.296;8.874;2022-08-20T05:27:36;6.80;;;6.20;;
13685;SDS011;6915;48.296;8.874;2022-08-20T05:30:04;8.17;;;5.73;;
13685;SDS011;6915;48.296;8.874;2022-08-20T05:32:34;5.90;;;5.43;;
13685;SDS011;6915;48.296;8.874;2022-08-20T05:35:02;5.67;;;5.17;;
13685;SDS011;6915;48.296;8.874;2022-08-20T05:37:32;9.63;;;5.63;;
13685;SDS011;6915;48.296;8.874;2022-08-20T05:40:00;6.57;;;5.90;;
13685;SDS011;6915;48.296;8.874;2022-08-20T05:42:28;6.40;;;5.80;;
13685;SDS011;6915;48.296;8.874;2022-08-20T05:44:55;5.93;;;5.43;;
13685;SDS011;6915;48.296;8.874;2022-08-20T05:47:22;6.30;;;5.70;;
13685;SDS011;6915;48.296;8.874;2022-08-20T05:49:53;6.27;;;5.77;;
13685;SDS011;6915;48.296;8.874;2022-08-20T05:52:20;5.97;;;5.40;;
13685;SDS011;6915;48.296;8.874;2022-08-20T05:54:48;6.23;;;5.60;;
13685;SDS011;6915;48.296;8.874;2022-08-20T05:57:17;6.93;;;6.20;;
13685;SDS011;6915;48.296;8.874;2022-08-20T05:59:45;6.77;;;6.07;;
13685;SDS011;6915;48.296;8.874;2022-08-20T06:02:13;8.90;;;5.93;;
13685;SDS011;6915;48.296;8.874;2022-08-20T06:04:57;6.43;;;5.83;;
13685;SDS011;6915;48.296;8.874;2022-08-20T06:07:25;6.90;;;6.20;;
13685;SDS011;6915;48.296;8.874;2022-08-20T06:09:52;7.17;;;6.10;;
13685;SDS011;6915;48.296;8.874;2022-08-20T06:12:19;6.63;;;6.03;;
13685;SDS011;6915;48.296;8.874;2022-08-20T06:14:47;6.70;;;6.10;;
13685;SDS011;6915;48.296;8.874;2022-08-20T06:17:15;6.43;;;5.93;;
13685;SDS011;6915;48.296;8.874;2022-08-20T06:19:43;6.40;;;5.80;;
13685;SDS011;6915;48.296;8.874;2022-08-20T06:22:12;6.33;;;5.83;;
13685;SDS011;6915;48.296;8.874;2022-08-20T06:24:40;5.73;;;5.17;;
13685;SDS011;6915;48.296;8.874;2022-08-20T06:27:07;6.77;;;5.90;;
13685;SDS011;6915;48.296;8.874;2022-08-20T06:29:38;6.87;;;5.60;;
13685;SDS011;6915;48.296;8.874;2022-08-20T06:32:06;5.60;;;5.10;;
13685;SDS011;6915;48.296;8.874;2022-08-20T06:34:33;5.70;;;5.20;;
13685;SDS011;6915;48.296;8.874;2022-08-20T06:37:01;6.13;;;5.63;;
13685;SDS011;6915;48.296;8.874;2022-08-20T06:39:29;8.00;;;5.50;;
13685;SDS011;6915;48.296;8.874;2022-08-20T06:41:56;5.30;;;4.87;;
13685;SDS011;6915;48.296;8.874;2022-08-20T06:44:23;5.50;;;5.10;;
13685;SDS011;6915;48.296;8.874;2022-08-20T06:46:52;6.10;;;5.07;;
13685;SDS011;6915;48.296;8.874;2022-08-20T06:49:21;5.70;;;5.13;;
13685;SDS011;6915;48.296;8.874;2022-08-20T06:51:48;5.47;;;4.77;;
13685;SDS011;6915;48.296;8.874;2022-08-20T06:54:15;6.87;;;5.33;;
13685;SDS011;6915;48.296;8.874;2022-08-20T06:56:42;5.03;;;4.63;;
13685;SDS011;6915;48.296;8.874;2022-08-20T06:59:09;5.00;;;4.53;;
13685;SDS011;6915;48.296;8.874;2022-08-20T07:01:36;7.33;;;5.07;;
13685;SDS011;6915;48.296;8.874;2022-08-20T07:04:03;6.47;;;4.80;;
13685;SDS011;6915;48.296;8.874;2022-08-20T07:06:33;5.50;;;4.97;;
13685;SDS011;6915;48.296;8.874;2022-08-20T07:09:00;5.80;;;5.30;;
13685;SDS011;6915;48.296;8.874;2022-08-20T07:11:27;6.10;;;4.70;;
13685;SDS011;6915;48.296;8.874;2022-08-20T07:13:55;5.10;;;4.70;;
13685;SDS011;6915;48.296;8.874;2022-08-20T07:16:23;5.43;;;4.37;;
13685;SDS011;6915;48.296;8.874;2022-08-20T07:18:50;4.83;;;4.43;;
13685;SDS011;6915;48.296;8.874;2022-08-20T07:21:17;4.67;;;4.27;;
13685;SDS011;6915;48.296;8.874;2022-08-20T07:23:46;4.97;;;4.57;;
13685;SDS011;6915;48.296;8.874;2022-08-20T07:26:13;4.77;;;4.37;;
13685;SDS011;6915;48.296;8.874;2022-08-20T07:28:41;4.75;;;4.38;;
13685;SDS011;6915;48.296;8.874;2022-08-20T07:31:08;4.78;;;4.38;;
13685;SDS011;6915;48.296;8.874;2022-08-20T07:33:52;4.60;;;4.30;;
13685;SDS011;6915;48.296;8.874;2022-08-20T07:36:19;5.20;;;4.70;;
13685;SDS011;6915;48.296;8.874;2022-08-20T07:38:48;5.50;;;4.90;;
13685;SDS011;6915;48.296;8.874;2022-08-20T07:41:17;4.93;;;4.50;;
13685;SDS011;6915;48.296;8.874;2022-08-20T07:43:45;4.43;;;4.13;;
13685;SDS011;6915;48.296;8.874;2022-08-20T07:46:13;4.60;;;4.23;;
13685;SDS011;6915;48.296;8.874;2022-08-20T07:48:42;4.95;;;4.47;;
13685;SDS011;6915;48.296;8.874;2022-08-20T07:51:14;5.43;;;4.20;;
13685;SDS011;6915;48.296;8.874;2022-08-20T07:53:43;5.25;;;4.15;;
13685;SDS011;6915;48.296;8.874;2022-08-20T07:56:13;4.25;;;3.85;;
13685;SDS011;6915;48.296;8.874;2022-08-20T07:58:42;4.70;;;4.15;;
13685;SDS011;6915;48.296;8.874;2022-08-20T08:01:14;6.15;;;4.30;;
13685;SDS011;6915;48.296;8.874;2022-08-20T08:03:41;4.45;;;4.15;;
13685;SDS011;6915;48.296;8.874;2022-08-20T08:06:08;6.15;;;4.25;;
13685;SDS011;6915;48.296;8.874;2022-08-20T08:08:35;4.50;;;3.90;;
13685;SDS011;6915;48.296;8.874;2022-08-20T08:11:05;6.90;;;3.95;;
13685;SDS011;6915;48.296;8.874;2022-08-20T08:13:35;4.35;;;4.00;;
13685;SDS011;6915;48.296;8.874;2022-08-20T08:16:05;4.00;;;3.78;;
13685;SDS011;6915;48.296;8.874;2022-08-20T08:18:34;4.82;;;3.70;;
13685;SDS011;6915;48.296;8.874;2022-08-20T08:21:04;4.40;;;4.00;;
13685;SDS011;6915;48.296;8.874;2022-08-20T08:23:32;3.80;;;3.50;;
13685;SDS011;6915;48.296;8.874;2022-08-20T08:26:00;5.80;;;3.70;;
13685;SDS011;6915;48.296;8.874;2022-08-20T08:28:27;3.90;;;3.42;;
13685;SDS011;6915;48.296;8.874;2022-08-20T08:30:56;3.38;;;3.08;;
13685;SDS011;6915;48.296;8.874;2022-08-20T08:33:24;3.67;;;3.28;;
13685;SDS011;6915;48.296;8.874;2022-08-20T08:35:52;3.47;;;3.28;;
13685;SDS011;6915;48.296;8.874;2022-08-20T08:38:20;3.63;;;3.33;;
13685;SDS011;6915;48.296;8.874;2022-08-20T08:40:48;4.10;;;3.67;;
13685;SDS011;6915;48.296;8.874;2022-08-20T08:43:18;4.50;;;3.47;;
13685;SDS011;6915;48.296;8.874;2022-08-20T08:45:50;3.40;;;3.20;;
13685;SDS011;6915;48.296;8.874;2022-08-20T08:48:23;4.18;;;3.63;;
13685;SDS011;6915;48.296;8.874;2022-08-20T08:50:57;3.63;;;3.33;;
13685;SDS011;6915;48.296;8.874;2022-08-20T08:53:29;3.25;;;2.95;;
13685;SDS011;6915;48.296;8.874;2022-08-20T08:56:00;5.47;;;3.35;;
13685;SDS011;6915;48.296;8.874;2022-08-20T08:58:27;3.33;;;3.03;;
13685;SDS011;6915;48.296;8.874;2022-08-20T09:00:54;3.05;;;2.85;;
13685;SDS011;6915;48.296;8.874;2022-08-20T09:03:25;5.05;;;3.75;;
13685;SDS011;6915;48.296;8.874;2022-08-20T09:05:55;3.58;;;3.30;;
13685;SDS011;6915;48.296;8.874;2022-08-20T09:08:25;4.53;;;3.40;;
13685;SDS011;6915;48.296;8.874;2022-08-20T09:10:59;5.18;;;3.40;;
13685;SDS011;6915;48.296;8.874;2022-08-20T09:13:27;3.45;;;3.25;;
13685;SDS011;6915;48.296;8.874;2022-08-20T09:15:54;3.50;;;3.20;;
13685;SDS011;6915;48.296;8.874;2022-08-20T09:18:21;2.65;;;2.45;;
13685;SDS011;6915;48.296;8.874;2022-08-20T09:20:50;2.58;;;2.47;;
13685;SDS011;6915;48.296;8.874;2022-08-20T09:23:17;2.83;;;2.70;;
13685;SDS011;6915;48.296;8.874;2022-08-20T09:25:44;2.90;;;2.40;;
13685;SDS011;6915;48.296;8.874;2022-08-20T09:28:11;2.38;;;2.28;;
13685;SDS011;6915;48.296;8.874;2022-08-20T09:30:38;2.13;;;2.03;;
13685;SDS011;6915;48.296;8.874;2022-08-20T09:33:05;1.60;;;1.50;;
13685;SDS011;6915;48.296;8.874;2022-08-20T09:35:33;1.37;;;1.10;;
13685;SDS011;6915;48.296;8.874;2022-08-20T09:38:02;1.53;;;1.20;;
13685;SDS011;6915;48.296;8.874;2022-08-20T09:40:29;1.00;;;1.00;;
13685;SDS011;6915;48.296;8.874;2022-08-20T09:42:56;1.73;;;0.90;;
13685;SDS011;6915;48.296;8.874;2022-08-20T09:45:23;2.00;;;0.90;;
13685;SDS011;6915;48.296;8.874;2022-08-20T09:47:50;0.97;;;0.83;;
13685;SDS011;6915;48.296;8.874;2022-08-20T09:50:17;3.53;;;0.90;;
13685;SDS011;6915;48.296;8.874;2022-08-20T09:52:46;1.83;;;1.10;;
13685;SDS011;6915;48.296;8.874;2022-08-20T09:55:17;2.87;;;0.80;;
13685;SDS011;6915;48.296;8.874;2022-08-20T09:57:46;1.57;;;1.17;;
13685;SDS011;6915;48.296;8.874;2022-08-20T10:00:16;1.23;;;1.13;;
13685;SDS011;6915;48.296;8.874;2022-08-20T10:02:44;1.93;;;1.80;;
13685;SDS011;6915;48.296;8.874;2022-08-20T10:05:11;3.03;;;1.38;;
13685;SDS011;6915;48.296;8.874;2022-08-20T10:07:38;1.38;;;1.17;;
13685;SDS011;6915;48.296;8.874;2022-08-20T10:10:10;1.00;;;1.00;;
13685;SDS011;6915;48.296;8.874;2022-08-20T10:12:39;1.05;;;0.95;;
13685;SDS011;6915;48.296;8.874;2022-08-20T10:15:07;1.35;;;1.27;;
13685;SDS011;6915;48.296;8.874;2022-08-20T10:17:36;1.95;;;1.00;;
13685;SDS011;6915;48.296;8.874;2022-08-20T10:20:04;1.75;;;0.80;;
13685;SDS011;6915;48.296;8.874;2022-08-20T10:22:32;1.05;;;1.00;;
13685;SDS011;6915;48.296;8.874;2022-08-20T10:24:59;0.80;;;0.80;;
13685;SDS011;6915;48.296;8.874;2022-08-20T10:27:28;1.33;;;0.90;;
13685;SDS011;6915;48.296;8.874;2022-08-20T10:29:55;1.10;;;1.00;;
13685;SDS011;6915;48.296;8.874;2022-08-20T10:32:22;2.38;;;0.80;;
13685;SDS011;6915;48.296;8.874;2022-08-20T10:34:49;0.90;;;0.90;;
13685;SDS011;6915;48.296;8.874;2022-08-20T10:37:17;1.10;;;1.00;;
13685;SDS011;6915;48.296;8.874;2022-08-20T10:39:45;0.88;;;0.88;;
13685;SDS011;6915;48.296;8.874;2022-08-20T10:42:12;1.27;;;1.17;;
13685;SDS011;6915;48.296;8.874;2022-08-20T10:44:41;1.40;;;1.30;;
13685;SDS011;6915;48.296;8.874;2022-08-20T10:47:12;1.88;;;1.48;;
13685;SDS011;6915;48.296;8.874;2022-08-20T10:49:40;2.10;;;1.38;;
13685;SDS011;6915;48.296;8.874;2022-08-20T10:52:07;1.67;;;1.58;;
13685;SDS011;6915;48.296;8.874;2022-08-20T10:54:34;1.50;;;1.40;;
13685;SDS011;6915;48.296;8.874;2022-08-20T10:57:05;1.88;;;1.30;;
13685;SDS011;6915;48.296;8.874;2022-08-20T10:59:36;1.65;;;1.55;;
13685;SDS011;6915;48.296;8.874;2022-08-20T11:02:05;1.70;;;1.60;;
13685;SDS011;6915;48.296;8.874;2022-08-20T11:04:32;1.70;;;1.60;;
13685;SDS011;6915;48.296;8.874;2022-08-20T11:07:08;3.40;;;1.48;;
13685;SDS011;6915;48.296;8.874;2022-08-20T11:09:36;1.20;;;1.20;;
13685;SDS011;6915;48.296;8.874;2022-08-20T11:12:03;1.70;;;1.60;;
13685;SDS011;6915;48.296;8.874;2022-08-20T11:14:31;1.50;;;1.40;;
13685;SDS011;6915;48.296;8.874;2022-08-20T11:16:58;1.65;;;1.55;;
13685;SDS011;6915;48.296;8.874;2022-08-20T11:19:27;1.25;;;1.15;;
13685;SDS011;6915;48.296;8.874;2022-08-20T11:21:55;0.88;;;0.60;;
13685;SDS011;6915;48.296;8.874;2022-08-20T11:24:22;0.73;;;0.73;;
13685;SDS011;6915;48.296;8.874;2022-08-20T11:26:49;0.88;;;0.80;;
13685;SDS011;6915;48.296;8.874;2022-08-20T11:29:17;0.68;;;0.68;;
13685;SDS011;6915;48.296;8.874;2022-08-20T11:31:46;0.65;;;0.55;;
13685;SDS011;6915;48.296;8.874;2022-08-20T11:34:13;3.40;;;0.88;;
13685;SDS011;6915;48.296;8.874;2022-08-20T11:36:41;3.58;;;0.80;;
13685;SDS011;6915;48.296;8.874;2022-08-20T11:39:10;2.15;;;0.70;;
13685;SDS011;6915;48.296;8.874;2022-08-20T11:41:37;1.48;;;0.50;;
13685;SDS011;6915;48.296;8.874;2022-08-20T11:44:04;0.77;;;0.30;;
13685;SDS011;6915;48.296;8.874;2022-08-20T11:46:31;0.30;;;0.30;;
13685;SDS011;6915;48.296;8.874;2022-08-20T11:48:58;0.30;;;0.30;;
13685;SDS011;6915;48.296;8.874;2022-08-20T11:51:24;0.20;;;0.20;;
13685;SDS011;6915;48.296;8.874;2022-08-20T11:53:53;0.30;;;0.30;;
13685;SDS011;6915;48.296;8.874;2022-08-20T11:56:20;0.38;;;0.38;;
13685;SDS011;6915;48.296;8.874;2022-08-20T11:58:47;0.30;;;0.30;;
13685;SDS011;6915;48.296;8.874;2022-08-20T12:01:14;0.28;;;0.28;;
13685;SDS011;6915;48.296;8.874;2022-08-20T12:03:41;0.20;;;0.20;;
13685;SDS011;6915;48.296;8.874;2022-08-20T12:06:08;0.20;;;0.20;;
13685;SDS011;6915;48.296;8.874;2022-08-20T12:08:35;0.63;;;0.30;;
13685;SDS011;6915;48.296;8.874;2022-08-20T12:11:03;0.85;;;0.20;;
13685;SDS011;6915;48.296;8.874;2022-08-20T12:13:32;0.25;;;0.25;;
13685;SDS011;6915;48.296;8.874;2022-08-20T12:16:00;0.20;;;0.20;;
13685;SDS011;6915;48.296;8.874;2022-08-20T12:18:27;0.13;;;0.13;;
13685;SDS011;6915;48.296;8.874;2022-08-20T12:20:55;0.20;;;0.20;;
13685;SDS011;6915;48.296;8.874;2022-08-20T12:23:23;0.20;;;0.20;;
13685;SDS011;6915;48.296;8.874;2022-08-20T12:25:50;0.30;;;0.20;;
13685;SDS011;6915;48.296;8.874;2022-08-20T12:28:18;0.55;;;0.30;;
13685;SDS011;6915;48.296;8.874;2022-08-20T12:30:45;0.30;;;0.30;;
13685;SDS011;6915;48.296;8.874;2022-08-20T12:33:12;0.73;;;0.28;;
13685;SDS011;6915;48.296;8.874;2022-08-20T12:35:39;1.65;;;0.40;;
13685;SDS011;6915;48.296;8.874;2022-08-20T12:38:06;0.38;;;0.25;;
13685;SDS011;6915;48.296;8.874;2022-08-20T12:40:33;0.20;;;0.20;;
13685;SDS011;6915;48.296;8.874;2022-08-20T12:43:00;0.20;;;0.20;;
13685;SDS011;6915;48.296;8.874;2022-08-20T12:45:31;1.00;;;0.40;;
13685;SDS011;6915;48.296;8.874;2022-08-20T12:48:00;0.10;;;0.10;;
13685;SDS011;6915;48.296;8.874;2022-08-20T12:50:29;0.30;;;0.30;;
13685;SDS011;6915;48.296;8.874;2022-08-20T12:52:57;0.30;;;0.30;;
13685;SDS011;6915;48.296;8.874;2022-08-20T12:55:24;0.90;;;0.30;;
13685;SDS011;6915;48.296;8.874;2022-08-20T12:57:52;0.30;;;0.30;;
13685;SDS011;6915;48.296;8.874;2022-08-20T13:00:21;0.30;;;0.30;;
13685;SDS011;6915;48.296;8.874;2022-08-20T13:02:52;0.32;;;0.22;;
13685;SDS011;6915;48.296;8.874;2022-08-20T13:05:20;0.82;;;0.50;;
13685;SDS011;6915;48.296;8.874;2022-08-20T13:07:47;2.80;;;0.60;;
13685;SDS011;6915;48.296;8.874;2022-08-20T13:10:15;0.43;;;0.43;;
13685;SDS011;6915;48.296;8.874;2022-08-20T13:12:44;2.20;;;0.70;;
13685;SDS011;6915;48.296;8.874;2022-08-20T13:15:11;1.52;;;0.80;;
13685;SDS011;6915;48.296;8.874;2022-08-20T13:17:38;3.33;;;0.80;;
13685;SDS011;6915;48.296;8.874;2022-08-20T13:20:08;1.05;;;0.80;;
13685;SDS011;6915;48.296;8.874;2022-08-20T13:22:36;0.82;;;0.60;;
13685;SDS011;6915;48.296;8.874;2022-08-20T13:25:04;2.65;;;1.10;;
13685;SDS011;6915;48.296;8.874;2022-08-20T13:27:31;0.85;;;0.82;;
13685;SDS011;6915;48.296;8.874;2022-08-20T13:30:02;1.77;;;0.80;;
13685;SDS011;6915;48.296;8.874;2022-08-20T13:32:31;0.90;;;0.53;;
13685;SDS011;6915;48.296;8.874;2022-08-20T13:34:58;1.10;;;0.68;;
13685;SDS011;6915;48.296;8.874;2022-08-20T13:37:27;1.20;;;0.60;;
13685;SDS011;6915;48.296;8.874;2022-08-20T13:39:55;0.52;;;0.40;;
13685;SDS011;6915;48.296;8.874;2022-08-20T13:42:24;0.57;;;0.57;;
13685;SDS011;6915;48.296;8.874;2022-08-20T13:44:51;0.70;;;0.60;;
13685;SDS011;6915;48.296;8.874;2022-08-20T13:47:20;2.03;;;0.70;;
13685;SDS011;6915;48.296;8.874;2022-08-20T13:49:53;0.90;;;0.50;;
13685;SDS011;6915;48.296;8.874;2022-08-20T13:52:21;0.52;;;0.50;;
13685;SDS011;6915;48.296;8.874;2022-08-20T13:54:50;0.50;;;0.50;;
13685;SDS011;6915;48.296;8.874;2022-08-20T13:57:18;1.20;;;0.70;;
13685;SDS011;6915;48.296;8.874;2022-08-20T13:59:46;1.67;;;0.50;;
13685;SDS011;6915;48.296;8.874;2022-08-20T14:02:15;0.50;;;0.50;;
13685;SDS011;6915;48.296;8.874;2022-08-20T14:04:43;0.80;;;0.50;;
13685;SDS011;6915;48.296;8.874;2022-08-20T14:07:12;0.55;;;0.55;;
13685;SDS011;6915;48.296;8.874;2022-08-20T14:09:41;0.55;;;0.50;;
13685;SDS011;6915;48.296;8.874;2022-08-20T14:12:11;0.50;;;0.50;;
13685;SDS011;6915;48.296;8.874;2022-08-20T14:14:39;0.63;;;0.60;;
13685;SDS011;6915;48.296;8.874;2022-08-20T14:17:14;0.60;;;0.60;;
13685;SDS011;6915;48.296;8.874;2022-08-20T14:19:42;1.30;;;0.40;;
13685;SDS011;6915;48.296;8.874;2022-08-20T14:22:09;0.43;;;0.43;;
13685;SDS011;6915;48.296;8.874;2022-08-20T14:24:36;0.77;;;0.45;;
13685;SDS011;6915;48.296;8.874;2022-08-20T14:27:04;1.65;;;0.50;;
13685;SDS011;6915;48.296;8.874;2022-08-20T14:29:33;1.85;;;0.70;;
13685;SDS011;6915;48.296;8.874;2022-08-20T14:32:02;0.73;;;0.40;;
13685;SDS011;6915;48.296;8.874;2022-08-20T14:34:30;0.60;;;0.50;;
13685;SDS011;6915;48.296;8.874;2022-08-20T14:37:07;0.93;;;0.60;;
13685;SDS011;6915;48.296;8.874;2022-08-20T14:39:36;0.82;;;0.55;;
13685;SDS011;6915;48.296;8.874;2022-08-20T14:42:03;0.82;;;0.63;;
13685;SDS011;6915;48.296;8.874;2022-08-20T14:44:31;0.82;;;0.68;;
13685;SDS011;6915;48.296;8.874;2022-08-20T14:47:08;0.65;;;0.65;;
13685;SDS011;6915;48.296;8.874;2022-08-20T14:49:40;1.20;;;0.60;;
13685;SDS011;6915;48.296;8.874;2022-08-20T14:52:07;0.75;;;0.63;;
13685;SDS011;6915;48.296;8.874;2022-08-20T14:54:34;0.75;;;0.60;;
13685;SDS011;6915;48.296;8.874;2022-08-20T14:57:02;0.90;;;0.65;;
13685;SDS011;6915;48.296;8.874;2022-08-20T14:59:29;0.60;;;0.60;;
13685;SDS011;6915;48.296;8.874;2022-08-20T15:01:58;0.60;;;0.60;;
13685;SDS011;6915;48.296;8.874;2022-08-20T15:04:25;0.60;;;0.60;;
13685;SDS011;6915;48.296;8.874;2022-08-20T15:06:52;1.17;;;0.50;;